sensor_id;sensor_type;location;lat;lon;timestamp;P1;durP1;ratioP1;P2;durP2;ratioP2
7049;SDS011;22263;52.260;10.548;2023-06-14T00:00:50;0.20;;;0.20;;
7049;SDS011;22263;52.260;10.548;2023-06-14T00:03:25;0.20;;;0.20;;
7049;SDS011;22263;52.260;10.548;2023-06-14T00:05:55;0.20;;;0.20;;
7049;SDS011;22263;52.260;10.548;2023-06-14T00:08:26;0.20;;;0.20;;
7049;SDS011;22263;52.260;10.548;2023-06-14T00:10:56;0.20;;;0.20;;
7049;SDS011;22263;52.260;10.548;2023-06-14T00:13:26;0.30;;;0.30;;
7049;SDS011;22263;52.260;10.548;2023-06-14T00:15:59;0.20;;;0.20;;
7049;SDS011;22263;52.260;10.548;2023-06-14T00:18:31;0.28;;;0.28;;
7049;SDS011;22263;52.260;10.548;2023-06-14T00:21:00;0.20;;;0.20;;
7049;SDS011;22263;52.260;10.548;2023-06-14T00:23:31;0.20;;;0.20;;
7049;SDS011;22263;52.260;10.548;2023-06-14T00:26:01;0.30;;;0.30;;
7049;SDS011;22263;52.260;10.548;2023-06-14T00:28:31;0.20;;;0.20;;
7049;SDS011;22263;52.260;10.548;2023-06-14T00:31:04;0.20;;;0.20;;
7049;SDS011;22263;52.260;10.548;2023-06-14T00:33:34;0.20;;;0.20;;
7049;SDS011;22263;52.260;10.548;2023-06-14T00:36:04;0.20;;;0.20;;
7049;SDS011;22263;52.260;10.548;2023-06-14T00:38:35;0.20;;;0.20;;
7049;SDS011;22263;52.260;10.548;2023-06-14T00:41:05;0.20;;;0.20;;
7049;SDS011;22263;52.260;10.548;2023-06-14T00:43:35;0.25;;;0.25;;
7049;SDS011;22263;52.260;10.548;2023-06-14T00:46:07;0.20;;;0.20;;
7049;SDS011;22263;52.260;10.548;2023-06-14T00:48:38;0.30;;;0.30;;
7049;SDS011;22263;52.260;10.548;2023-06-14T00:51:09;0.20;;;0.20;;
7049;SDS011;22263;52.260;10.548;2023-06-14T00:53:40;0.20;;;0.20;;
7049;SDS011;22263;52.260;10.548;2023-06-14T00:56:14;0.20;;;0.20;;
7049;SDS011;22263;52.260;10.548;2023-06-14T00:58:49;0.30;;;0.30;;
7049;SDS011;22263;52.260;10.548;2023-06-14T01:01:22;0.20;;;0.20;;
7049;SDS011;22263;52.260;10.548;2023-06-14T01:03:53;0.20;;;0.20;;
7049;SDS011;22263;52.260;10.548;2023-06-14T01:06:26;0.20;;;0.20;;
7049;SDS011;22263;52.260;10.548;2023-06-14T01:09:05;0.20;;;0.20;;
7049;SDS011;22263;52.260;10.548;2023-06-14T01:11:43;0.20;;;0.20;;
7049;SDS011;22263;52.260;10.548;2023-06-14T01:14:20;0.20;;;0.20;;
7049;SDS011;22263;52.260;10.548;2023-06-14T01:16:55;0.30;;;0.30;;
7049;SDS011;22263;52.260;10.548;2023-06-14T01:19:27;0.30;;;0.30;;
7049;SDS011;22263;52.260;10.548;2023-06-14T01:21:59;0.20;;;0.20;;
7049;SDS011;22263;52.260;10.548;2023-06-14T01:24:33;0.30;;;0.30;;
7049;SDS011;22263;52.260;10.548;2023-06-14T01:27:03;0.25;;;0.25;;
7049;SDS011;22263;52.260;10.548;2023-06-14T01:29:36;0.30;;;0.30;;
7049;SDS011;22263;52.260;10.548;2023-06-14T01:32:14;0.20;;;0.20;;
7049;SDS011;22263;52.260;10.548;2023-06-14T01:34:45;0.30;;;0.30;;
7049;SDS011;22263;52.260;10.548;2023-06-14T01:37:18;0.30;;;0.30;;
7049;SDS011;22263;52.260;10.548;2023-06-14T01:39:54;0.20;;;0.20;;
7049;SDS011;22263;52.260;10.548;2023-06-14T01:42:25;0.30;;;0.30;;
7049;SDS011;22263;52.260;10.548;2023-06-14T01:44:55;0.20;;;0.20;;
7049;SDS011;22263;52.260;10.548;2023-06-14T01:47:27;0.20;;;0.20;;
7049;SDS011;22263;52.260;10.548;2023-06-14T01:49:57;0.20;;;0.20;;
7049;SDS011;22263;52.260;10.548;2023-06-14T01:52:31;0.20;;;0.20;;
7049;SDS011;22263;52.260;10.548;2023-06-14T01:55:05;0.30;;;0.30;;
7049;SDS011;22263;52.260;10.548;2023-06-14T01:57:37;0.20;;;0.20;;
7049;SDS011;22263;52.260;10.548;2023-06-14T02:00:10;0.20;;;0.20;;
7049;SDS011;22263;52.260;10.548;2023-06-14T02:02:41;0.20;;;0.20;;
7049;SDS011;22263;52.260;10.548;2023-06-14T02:05:12;0.20;;;0.20;;
7049;SDS011;22263;52.260;10.548;2023-06-14T02:07:45;0.30;;;0.30;;
7049;SDS011;22263;52.260;10.548;2023-06-14T02:10:20;0.30;;;0.30;;
7049;SDS011;22263;52.260;10.548;2023-06-14T02:12:51;0.30;;;0.30;;
7049;SDS011;22263;52.260;10.548;2023-06-14T02:15:21;0.30;;;0.30;;
7049;SDS011;22263;52.260;10.548;2023-06-14T02:17:51;0.30;;;0.30;;
7049;SDS011;22263;52.260;10.548;2023-06-14T02:20:21;0.30;;;0.30;;
7049;SDS011;22263;52.260;10.548;2023-06-14T02:22:53;0.30;;;0.30;;
7049;SDS011;22263;52.260;10.548;2023-06-14T02:25:26;0.20;;;0.20;;
7049;SDS011;22263;52.260;10.548;2023-06-14T02:27:57;0.30;;;0.30;;
7049;SDS011;22263;52.260;10.548;2023-06-14T02:30:28;0.30;;;0.30;;
7049;SDS011;22263;52.260;10.548;2023-06-14T02:32:58;0.30;;;0.30;;
7049;SDS011;22263;52.260;10.548;2023-06-14T02:35:29;0.30;;;0.30;;
7049;SDS011;22263;52.260;10.548;2023-06-14T02:38:00;0.30;;;0.30;;
7049;SDS011;22263;52.260;10.548;2023-06-14T02:40:33;0.30;;;0.30;;
7049;SDS011;22263;52.260;10.548;2023-06-14T02:43:04;0.30;;;0.30;;
7049;SDS011;22263;52.260;10.548;2023-06-14T02:45:34;0.30;;;0.30;;
7049;SDS011;22263;52.260;10.548;2023-06-14T02:48:08;0.30;;;0.30;;
7049;SDS011;22263;52.260;10.548;2023-06-14T02:50:39;0.30;;;0.30;;
7049;SDS011;22263;52.260;10.548;2023-06-14T02:53:10;0.30;;;0.30;;
7049;SDS011;22263;52.260;10.548;2023-06-14T02:55:45;0.30;;;0.30;;
7049;SDS011;22263;52.260;10.548;2023-06-14T02:58:16;0.30;;;0.30;;
7049;SDS011;22263;52.260;10.548;2023-06-14T03:00:47;0.30;;;0.30;;
7049;SDS011;22263;52.260;10.548;2023-06-14T03:03:19;0.30;;;0.30;;
7049;SDS011;22263;52.260;10.548;2023-06-14T03:05:54;0.30;;;0.30;;
7049;SDS011;22263;52.260;10.548;2023-06-14T03:08:27;0.25;;;0.25;;
7049;SDS011;22263;52.260;10.548;2023-06-14T03:11:03;0.30;;;0.30;;
7049;SDS011;22263;52.260;10.548;2023-06-14T03:13:34;0.30;;;0.30;;
7049;SDS011;22263;52.260;10.548;2023-06-14T03:16:05;0.30;;;0.30;;
7049;SDS011;22263;52.260;10.548;2023-06-14T03:18:39;0.20;;;0.20;;
7049;SDS011;22263;52.260;10.548;2023-06-14T03:21:09;0.30;;;0.30;;
7049;SDS011;22263;52.260;10.548;2023-06-14T03:23:42;0.30;;;0.30;;
7049;SDS011;22263;52.260;10.548;2023-06-14T03:26:15;0.30;;;0.30;;
7049;SDS011;22263;52.260;10.548;2023-06-14T03:28:49;0.20;;;0.20;;
7049;SDS011;22263;52.260;10.548;2023-06-14T03:31:21;0.25;;;0.25;;
7049;SDS011;22263;52.260;10.548;2023-06-14T03:33:52;0.30;;;0.30;;
7049;SDS011;22263;52.260;10.548;2023-06-14T03:36:22;0.30;;;0.30;;
7049;SDS011;22263;52.260;10.548;2023-06-14T03:38:54;0.30;;;0.30;;
7049;SDS011;22263;52.260;10.548;2023-06-14T03:41:31;0.30;;;0.30;;
7049;SDS011;22263;52.260;10.548;2023-06-14T03:44:02;0.30;;;0.30;;
7049;SDS011;22263;52.260;10.548;2023-06-14T03:46:34;0.30;;;0.30;;
7049;SDS011;22263;52.260;10.548;2023-06-14T03:49:04;0.30;;;0.30;;
7049;SDS011;22263;52.260;10.548;2023-06-14T03:51:34;0.30;;;0.30;;
7049;SDS011;22263;52.260;10.548;2023-06-14T03:54:05;0.30;;;0.30;;
7049;SDS011;22263;52.260;10.548;2023-06-14T03:56:41;0.30;;;0.30;;
7049;SDS011;22263;52.260;10.548;2023-06-14T03:59:13;0.30;;;0.30;;
7049;SDS011;22263;52.260;10.548;2023-06-14T04:01:44;0.30;;;0.30;;
7049;SDS011;22263;52.260;10.548;2023-06-14T04:04:15;0.30;;;0.30;;
7049;SDS011;22263;52.260;10.548;2023-06-14T04:06:46;0.30;;;0.30;;
7049;SDS011;22263;52.260;10.548;2023-06-14T04:09:16;0.30;;;0.30;;
7049;SDS011;22263;52.260;10.548;2023-06-14T04:11:49;0.30;;;0.30;;
7049;SDS011;22263;52.260;10.548;2023-06-14T04:14:20;0.30;;;0.30;;
7049;SDS011;22263;52.260;10.548;2023-06-14T04:16:50;0.30;;;0.30;;
7049;SDS011;22263;52.260;10.548;2023-06-14T04:19:20;0.30;;;0.30;;
7049;SDS011;22263;52.260;10.548;2023-06-14T04:21:52;0.30;;;0.30;;
7049;SDS011;22263;52.260;10.548;2023-06-14T04:24:22;0.30;;;0.30;;
7049;SDS011;22263;52.260;10.548;2023-06-14T04:27:01;0.30;;;0.30;;
7049;SDS011;22263;52.260;10.548;2023-06-14T04:29:35;0.30;;;0.30;;
7049;SDS011;22263;52.260;10.548;2023-06-14T04:32:10;0.30;;;0.30;;
7049;SDS011;22263;52.260;10.548;2023-06-14T04:34:42;0.30;;;0.30;;
7049;SDS011;22263;52.260;10.548;2023-06-14T04:37:13;0.30;;;0.30;;
7049;SDS011;22263;52.260;10.548;2023-06-14T04:39:44;0.30;;;0.30;;
7049;SDS011;22263;52.260;10.548;2023-06-14T04:42:17;0.30;;;0.30;;
7049;SDS011;22263;52.260;10.548;2023-06-14T04:44:47;0.30;;;0.30;;
7049;SDS011;22263;52.260;10.548;2023-06-14T04:47:17;0.30;;;0.30;;
7049;SDS011;22263;52.260;10.548;2023-06-14T04:49:47;0.20;;;0.20;;
7049;SDS011;22263;52.260;10.548;2023-06-14T04:52:20;0.30;;;0.30;;
7049;SDS011;22263;52.260;10.548;2023-06-14T04:54:54;0.30;;;0.30;;
7049;SDS011;22263;52.260;10.548;2023-06-14T04:57:27;0.30;;;0.30;;
7049;SDS011;22263;52.260;10.548;2023-06-14T04:59:58;0.30;;;0.30;;
7049;SDS011;22263;52.260;10.548;2023-06-14T05:02:31;0.30;;;0.30;;
7049;SDS011;22263;52.260;10.548;2023-06-14T05:05:04;0.30;;;0.30;;
7049;SDS011;22263;52.260;10.548;2023-06-14T05:07:39;0.38;;;0.38;;
7049;SDS011;22263;52.260;10.548;2023-06-14T05:10:09;0.30;;;0.30;;
7049;SDS011;22263;52.260;10.548;2023-06-14T05:12:43;0.30;;;0.30;;
7049;SDS011;22263;52.260;10.548;2023-06-14T05:15:16;0.30;;;0.30;;
7049;SDS011;22263;52.260;10.548;2023-06-14T05:17:47;0.30;;;0.30;;
7049;SDS011;22263;52.260;10.548;2023-06-14T05:20:22;0.30;;;0.30;;
7049;SDS011;22263;52.260;10.548;2023-06-14T05:22:53;0.30;;;0.30;;
7049;SDS011;22263;52.260;10.548;2023-06-14T05:25:24;0.30;;;0.30;;
7049;SDS011;22263;52.260;10.548;2023-06-14T05:27:57;0.30;;;0.30;;
7049;SDS011;22263;52.260;10.548;2023-06-14T05:30:28;0.30;;;0.30;;
7049;SDS011;22263;52.260;10.548;2023-06-14T05:33:00;0.30;;;0.30;;
7049;SDS011;22263;52.260;10.548;2023-06-14T05:35:30;0.30;;;0.30;;
7049;SDS011;22263;52.260;10.548;2023-06-14T05:38:01;0.30;;;0.30;;
7049;SDS011;22263;52.260;10.548;2023-06-14T05:40:32;0.30;;;0.30;;
7049;SDS011;22263;52.260;10.548;2023-06-14T05:43:05;0.20;;;0.20;;
7049;SDS011;22263;52.260;10.548;2023-06-14T05:45:36;0.20;;;0.20;;
7049;SDS011;22263;52.260;10.548;2023-06-14T05:48:06;0.28;;;0.28;;
7049;SDS011;22263;52.260;10.548;2023-06-14T05:50:36;0.30;;;0.30;;
7049;SDS011;22263;52.260;10.548;2023-06-14T05:53:06;0.20;;;0.20;;
7049;SDS011;22263;52.260;10.548;2023-06-14T05:55:37;0.30;;;0.30;;
7049;SDS011;22263;52.260;10.548;2023-06-14T05:58:11;0.20;;;0.20;;
7049;SDS011;22263;52.260;10.548;2023-06-14T06:00:41;0.20;;;0.20;;
7049;SDS011;22263;52.260;10.548;2023-06-14T06:03:12;0.20;;;0.20;;
7049;SDS011;22263;52.260;10.548;2023-06-14T06:05:44;0.30;;;0.30;;
7049;SDS011;22263;52.260;10.548;2023-06-14T06:08:14;0.20;;;0.20;;
7049;SDS011;22263;52.260;10.548;2023-06-14T06:10:45;0.30;;;0.30;;
7049;SDS011;22263;52.260;10.548;2023-06-14T06:13:18;0.20;;;0.20;;
7049;SDS011;22263;52.260;10.548;2023-06-14T06:15:49;0.20;;;0.20;;
7049;SDS011;22263;52.260;10.548;2023-06-14T06:18:19;0.20;;;0.20;;
7049;SDS011;22263;52.260;10.548;2023-06-14T06:20:49;0.30;;;0.30;;
7049;SDS011;22263;52.260;10.548;2023-06-14T06:23:19;0.28;;;0.28;;
7049;SDS011;22263;52.260;10.548;2023-06-14T06:25:52;0.20;;;0.20;;
7049;SDS011;22263;52.260;10.548;2023-06-14T06:28:25;0.20;;;0.20;;
7049;SDS011;22263;52.260;10.548;2023-06-14T06:30:55;0.20;;;0.20;;
7049;SDS011;22263;52.260;10.548;2023-06-14T06:33:26;0.30;;;0.30;;
7049;SDS011;22263;52.260;10.548;2023-06-14T06:35:56;0.20;;;0.20;;
7049;SDS011;22263;52.260;10.548;2023-06-14T06:38:27;0.20;;;0.20;;
7049;SDS011;22263;52.260;10.548;2023-06-14T06:40:57;0.20;;;0.20;;
7049;SDS011;22263;52.260;10.548;2023-06-14T06:43:30;0.20;;;0.20;;
7049;SDS011;22263;52.260;10.548;2023-06-14T06:46:01;0.20;;;0.20;;
7049;SDS011;22263;52.260;10.548;2023-06-14T06:48:31;0.20;;;0.20;;
7049;SDS011;22263;52.260;10.548;2023-06-14T06:51:01;0.30;;;0.30;;
7049;SDS011;22263;52.260;10.548;2023-06-14T06:53:32;0.20;;;0.20;;
7049;SDS011;22263;52.260;10.548;2023-06-14T06:56:10;0.20;;;0.20;;
7049;SDS011;22263;52.260;10.548;2023-06-14T06:58:43;0.20;;;0.20;;
7049;SDS011;22263;52.260;10.548;2023-06-14T07:01:13;0.20;;;0.20;;
7049;SDS011;22263;52.260;10.548;2023-06-14T07:03:43;0.20;;;0.20;;
7049;SDS011;22263;52.260;10.548;2023-06-14T07:06:13;0.20;;;0.20;;
7049;SDS011;22263;52.260;10.548;2023-06-14T07:08:44;0.10;;;0.10;;
7049;SDS011;22263;52.260;10.548;2023-06-14T07:11:15;0.20;;;0.20;;
7049;SDS011;22263;52.260;10.548;2023-06-14T07:13:47;0.20;;;0.20;;
7049;SDS011;22263;52.260;10.548;2023-06-14T07:16:18;0.10;;;0.10;;
7049;SDS011;22263;52.260;10.548;2023-06-14T07:18:48;0.20;;;0.20;;
7049;SDS011;22263;52.260;10.548;2023-06-14T07:21:18;0.20;;;0.20;;
7049;SDS011;22263;52.260;10.548;2023-06-14T07:23:49;0.20;;;0.20;;
7049;SDS011;22263;52.260;10.548;2023-06-14T07:26:19;0.10;;;0.10;;
7049;SDS011;22263;52.260;10.548;2023-06-14T07:28:52;0.20;;;0.20;;
7049;SDS011;22263;52.260;10.548;2023-06-14T07:31:22;0.20;;;0.20;;
7049;SDS011;22263;52.260;10.548;2023-06-14T07:33:53;0.20;;;0.20;;
7049;SDS011;22263;52.260;10.548;2023-06-14T07:36:23;0.20;;;0.20;;
7049;SDS011;22263;52.260;10.548;2023-06-14T07:38:53;0.17;;;0.17;;
7049;SDS011;22263;52.260;10.548;2023-06-14T07:41:24;0.20;;;0.20;;
7049;SDS011;22263;52.260;10.548;2023-06-14T07:43:56;0.20;;;0.20;;
7049;SDS011;22263;52.260;10.548;2023-06-14T07:46:26;0.20;;;0.20;;
7049;SDS011;22263;52.260;10.548;2023-06-14T07:48:56;0.20;;;0.20;;
7049;SDS011;22263;52.260;10.548;2023-06-14T07:51:27;0.10;;;0.10;;
7049;SDS011;22263;52.260;10.548;2023-06-14T07:53:58;0.20;;;0.20;;
7049;SDS011;22263;52.260;10.548;2023-06-14T07:56:29;0.20;;;0.20;;
7049;SDS011;22263;52.260;10.548;2023-06-14T07:59:04;0.20;;;0.20;;
7049;SDS011;22263;52.260;10.548;2023-06-14T08:01:35;0.10;;;0.10;;
7049;SDS011;22263;52.260;10.548;2023-06-14T08:04:06;0.10;;;0.10;;
7049;SDS011;22263;52.260;10.548;2023-06-14T08:06:36;0.15;;;0.15;;
7049;SDS011;22263;52.260;10.548;2023-06-14T08:09:13;0.15;;;0.15;;
7049;SDS011;22263;52.260;10.548;2023-06-14T08:11:43;0.20;;;0.20;;
7049;SDS011;22263;52.260;10.548;2023-06-14T08:14:16;0.10;;;0.10;;
7049;SDS011;22263;52.260;10.548;2023-06-14T08:16:46;0.10;;;0.10;;
7049;SDS011;22263;52.260;10.548;2023-06-14T08:19:16;0.10;;;0.10;;
7049;SDS011;22263;52.260;10.548;2023-06-14T08:21:46;0.20;;;0.20;;
7049;SDS011;22263;52.260;10.548;2023-06-14T08:24:17;0.10;;;0.10;;
7049;SDS011;22263;52.260;10.548;2023-06-14T08:26:47;0.10;;;0.10;;
7049;SDS011;22263;52.260;10.548;2023-06-14T08:29:21;0.10;;;0.10;;
7049;SDS011;22263;52.260;10.548;2023-06-14T08:31:51;0.10;;;0.10;;
7049;SDS011;22263;52.260;10.548;2023-06-14T08:34:21;0.10;;;0.10;;
7049;SDS011;22263;52.260;10.548;2023-06-14T08:36:51;0.10;;;0.10;;
7049;SDS011;22263;52.260;10.548;2023-06-14T08:39:22;0.10;;;0.10;;
7049;SDS011;22263;52.260;10.548;2023-06-14T08:41:53;0.10;;;0.10;;
7049;SDS011;22263;52.260;10.548;2023-06-14T08:44:29;0.00;;;0.00;;
7049;SDS011;22263;52.260;10.548;2023-06-14T08:46:59;0.10;;;0.10;;
7049;SDS011;22263;52.260;10.548;2023-06-14T08:49:30;0.10;;;0.10;;
7049;SDS011;22263;52.260;10.548;2023-06-14T08:52:04;0.10;;;0.10;;
7049;SDS011;22263;52.260;10.548;2023-06-14T08:54:39;0.15;;;0.15;;
7049;SDS011;22263;52.260;10.548;2023-06-14T08:57:15;0.20;;;0.20;;
7049;SDS011;22263;52.260;10.548;2023-06-14T08:59:50;0.10;;;0.10;;
7049;SDS011;22263;52.260;10.548;2023-06-14T09:02:22;0.10;;;0.10;;
7049;SDS011;22263;52.260;10.548;2023-06-14T09:04:55;0.00;;;0.00;;
7049;SDS011;22263;52.260;10.548;2023-06-14T09:07:27;0.10;;;0.10;;
7049;SDS011;22263;52.260;10.548;2023-06-14T09:10:07;0.10;;;0.10;;
7049;SDS011;22263;52.260;10.548;2023-06-14T09:12:38;0.05;;;0.05;;
7049;SDS011;22263;52.260;10.548;2023-06-14T09:15:12;0.10;;;0.10;;
7049;SDS011;22263;52.260;10.548;2023-06-14T09:17:43;0.10;;;0.10;;
7049;SDS011;22263;52.260;10.548;2023-06-14T09:20:13;0.10;;;0.10;;
7049;SDS011;22263;52.260;10.548;2023-06-14T09:22:46;0.10;;;0.10;;
7049;SDS011;22263;52.260;10.548;2023-06-14T09:25:16;0.10;;;0.10;;
7049;SDS011;22263;52.260;10.548;2023-06-14T09:28:03;0.00;;;0.00;;
7049;SDS011;22263;52.260;10.548;2023-06-14T09:30:39;0.08;;;0.08;;
7049;SDS011;22263;52.260;10.548;2023-06-14T09:33:11;0.00;;;0.00;;
7049;SDS011;22263;52.260;10.548;2023-06-14T09:35:50;0.10;;;0.10;;
7049;SDS011;22263;52.260;10.548;2023-06-14T09:38:20;0.10;;;0.10;;
7049;SDS011;22263;52.260;10.548;2023-06-14T09:40:51;0.00;;;0.00;;
7049;SDS011;22263;52.260;10.548;2023-06-14T09:43:21;0.10;;;0.10;;
7049;SDS011;22263;52.260;10.548;2023-06-14T09:45:56;0.10;;;0.10;;
7049;SDS011;22263;52.260;10.548;2023-06-14T09:48:27;0.10;;;0.10;;
7049;SDS011;22263;52.260;10.548;2023-06-14T09:50:57;0.03;;;0.03;;
7049;SDS011;22263;52.260;10.548;2023-06-14T09:53:29;0.00;;;0.00;;
7049;SDS011;22263;52.260;10.548;2023-06-14T09:56:00;0.00;;;0.00;;
7049;SDS011;22263;52.260;10.548;2023-06-14T09:58:31;0.00;;;0.00;;
7049;SDS011;22263;52.260;10.548;2023-06-14T10:01:09;0.10;;;0.10;;
7049;SDS011;22263;52.260;10.548;2023-06-14T10:03:40;0.10;;;0.10;;
7049;SDS011;22263;52.260;10.548;2023-06-14T10:06:35;0.10;;;0.10;;
7049;SDS011;22263;52.260;10.548;2023-06-14T10:09:07;0.00;;;0.00;;
7049;SDS011;22263;52.260;10.548;2023-06-14T10:11:41;0.00;;;0.00;;
7049;SDS011;22263;52.260;10.548;2023-06-14T10:14:13;0.10;;;0.10;;
7049;SDS011;22263;52.260;10.548;2023-06-14T10:16:49;0.00;;;0.00;;
7049;SDS011;22263;52.260;10.548;2023-06-14T10:19:28;0.10;;;0.10;;
7049;SDS011;22263;52.260;10.548;2023-06-14T10:22:05;0.10;;;0.10;;
7049;SDS011;22263;52.260;10.548;2023-06-14T10:24:40;0.10;;;0.10;;
7049;SDS011;22263;52.260;10.548;2023-06-14T10:27:13;0.10;;;0.10;;
7049;SDS011;22263;52.260;10.548;2023-06-14T10:32:38;0.10;;;0.10;;
7049;SDS011;22263;52.260;10.548;2023-06-14T10:35:34;0.10;;;0.10;;
7049;SDS011;22263;52.260;10.548;2023-06-14T10:38:06;0.10;;;0.10;;
7049;SDS011;22263;52.260;10.548;2023-06-14T10:40:37;0.00;;;0.00;;
7049;SDS011;22263;52.260;10.548;2023-06-14T10:43:20;0.00;;;0.00;;
7049;SDS011;22263;52.260;10.548;2023-06-14T10:48:47;0.10;;;0.10;;
7049;SDS011;22263;52.260;10.548;2023-06-14T10:51:18;0.00;;;0.00;;
7049;SDS011;22263;52.260;10.548;2023-06-14T10:53:50;0.10;;;0.10;;
7049;SDS011;22263;52.260;10.548;2023-06-14T10:56:24;0.10;;;0.10;;
7049;SDS011;22263;52.260;10.548;2023-06-14T10:58:57;0.10;;;0.10;;
7049;SDS011;22263;52.260;10.548;2023-06-14T11:01:35;0.00;;;0.00;;
7049;SDS011;22263;52.260;10.548;2023-06-14T11:04:11;0.10;;;0.10;;
7049;SDS011;22263;52.260;10.548;2023-06-14T11:06:46;0.00;;;0.00;;
7049;SDS011;22263;52.260;10.548;2023-06-14T11:09:27;0.10;;;0.10;;
7049;SDS011;22263;52.260;10.548;2023-06-14T11:12:22;0.10;;;0.10;;
7049;SDS011;22263;52.260;10.548;2023-06-14T11:14:55;0.10;;;0.10;;
7049;SDS011;22263;52.260;10.548;2023-06-14T11:17:26;0.10;;;0.10;;
7049;SDS011;22263;52.260;10.548;2023-06-14T11:20:12;0.10;;;0.10;;
7049;SDS011;22263;52.260;10.548;2023-06-14T11:22:48;0.10;;;0.10;;
7049;SDS011;22263;52.260;10.548;2023-06-14T11:25:18;0.10;;;0.10;;
7049;SDS011;22263;52.260;10.548;2023-06-14T11:27:48;0.10;;;0.10;;
7049;SDS011;22263;52.260;10.548;2023-06-14T11:30:19;0.10;;;0.10;;
7049;SDS011;22263;52.260;10.548;2023-06-14T11:32:50;0.10;;;0.10;;
7049;SDS011;22263;52.260;10.548;2023-06-14T11:35:30;0.00;;;0.00;;
7049;SDS011;22263;52.260;10.548;2023-06-14T11:38:01;0.10;;;0.10;;
7049;SDS011;22263;52.260;10.548;2023-06-14T11:40:32;0.10;;;0.10;;
7049;SDS011;22263;52.260;10.548;2023-06-14T11:43:01;0.10;;;0.10;;
7049;SDS011;22263;52.260;10.548;2023-06-14T11:45:34;0.10;;;0.10;;
7049;SDS011;22263;52.260;10.548;2023-06-14T11:48:04;0.10;;;0.10;;
7049;SDS011;22263;52.260;10.548;2023-06-14T11:50:38;0.10;;;0.10;;
7049;SDS011;22263;52.260;10.548;2023-06-14T11:53:08;0.10;;;0.10;;
7049;SDS011;22263;52.260;10.548;2023-06-14T11:55:39;0.00;;;0.00;;
7049;SDS011;22263;52.260;10.548;2023-06-14T11:58:13;0.10;;;0.10;;
7049;SDS011;22263;52.260;10.548;2023-06-14T12:00:44;0.10;;;0.10;;
7049;SDS011;22263;52.260;10.548;2023-06-14T12:03:14;0.10;;;0.10;;
7049;SDS011;22263;52.260;10.548;2023-06-14T12:05:47;0.10;;;0.10;;
7049;SDS011;22263;52.260;10.548;2023-06-14T12:08:18;0.10;;;0.10;;
7049;SDS011;22263;52.260;10.548;2023-06-14T12:10:51;0.10;;;0.10;;
7049;SDS011;22263;52.260;10.548;2023-06-14T12:13:21;0.10;;;0.10;;
7049;SDS011;22263;52.260;10.548;2023-06-14T12:15:54;0.10;;;0.10;;
7049;SDS011;22263;52.260;10.548;2023-06-14T12:18:31;0.10;;;0.10;;
7049;SDS011;22263;52.260;10.548;2023-06-14T12:21:05;0.10;;;0.10;;
7049;SDS011;22263;52.260;10.548;2023-06-14T12:23:42;0.10;;;0.10;;
7049;SDS011;22263;52.260;10.548;2023-06-14T12:26:14;0.10;;;0.10;;
7049;SDS011;22263;52.260;10.548;2023-06-14T12:28:45;0.10;;;0.10;;
7049;SDS011;22263;52.260;10.548;2023-06-14T12:31:17;0.10;;;0.10;;
7049;SDS011;22263;52.260;10.548;2023-06-14T12:33:47;0.10;;;0.10;;
7049;SDS011;22263;52.260;10.548;2023-06-14T12:36:20;0.10;;;0.10;;
7049;SDS011;22263;52.260;10.548;2023-06-14T12:38:51;0.10;;;0.10;;
7049;SDS011;22263;52.260;10.548;2023-06-14T12:41:21;0.10;;;0.10;;
7049;SDS011;22263;52.260;10.548;2023-06-14T12:43:53;0.10;;;0.10;;
7049;SDS011;22263;52.260;10.548;2023-06-14T12:46:26;0.10;;;0.10;;
7049;SDS011;22263;52.260;10.548;2023-06-14T12:48:57;0.10;;;0.10;;
7049;SDS011;22263;52.260;10.548;2023-06-14T12:51:30;0.10;;;0.10;;
7049;SDS011;22263;52.260;10.548;2023-06-14T12:54:00;0.10;;;0.10;;
7049;SDS011;22263;52.260;10.548;2023-06-14T12:56:30;0.08;;;0.08;;
7049;SDS011;22263;52.260;10.548;2023-06-14T12:59:00;0.08;;;0.08;;
7049;SDS011;22263;52.260;10.548;2023-06-14T13:01:31;0.10;;;0.10;;
7049;SDS011;22263;52.260;10.548;2023-06-14T13:04:01;0.10;;;0.10;;
7049;SDS011;22263;52.260;10.548;2023-06-14T13:06:34;0.10;;;0.10;;
7049;SDS011;22263;52.260;10.548;2023-06-14T13:09:05;0.10;;;0.10;;
7049;SDS011;22263;52.260;10.548;2023-06-14T13:11:36;0.10;;;0.10;;
7049;SDS011;22263;52.260;10.548;2023-06-14T13:14:06;0.10;;;0.10;;
7049;SDS011;22263;52.260;10.548;2023-06-14T13:16:51;0.10;;;0.10;;
7049;SDS011;22263;52.260;10.548;2023-06-14T13:19:22;0.10;;;0.10;;
7049;SDS011;22263;52.260;10.548;2023-06-14T13:21:55;0.10;;;0.10;;
7049;SDS011;22263;52.260;10.548;2023-06-14T13:24:25;0.10;;;0.10;;
7049;SDS011;22263;52.260;10.548;2023-06-14T13:26:56;0.10;;;0.10;;
7049;SDS011;22263;52.260;10.548;2023-06-14T13:29:27;0.10;;;0.10;;
7049;SDS011;22263;52.260;10.548;2023-06-14T13:31:58;0.08;;;0.08;;
7049;SDS011;22263;52.260;10.548;2023-06-14T13:34:28;0.10;;;0.10;;
7049;SDS011;22263;52.260;10.548;2023-06-14T13:37:02;0.10;;;0.10;;
7049;SDS011;22263;52.260;10.548;2023-06-14T13:39:32;0.10;;;0.10;;
7049;SDS011;22263;52.260;10.548;2023-06-14T13:42:04;0.10;;;0.10;;
7049;SDS011;22263;52.260;10.548;2023-06-14T13:44:35;0.10;;;0.10;;
7049;SDS011;22263;52.260;10.548;2023-06-14T13:47:20;0.10;;;0.10;;
7049;SDS011;22263;52.260;10.548;2023-06-14T13:50:04;0.10;;;0.10;;
7049;SDS011;22263;52.260;10.548;2023-06-14T13:52:52;0.10;;;0.10;;
7049;SDS011;22263;52.260;10.548;2023-06-14T13:55:36;0.10;;;0.10;;
7049;SDS011;22263;52.260;10.548;2023-06-14T13:58:20;0.10;;;0.10;;
7049;SDS011;22263;52.260;10.548;2023-06-14T14:01:04;0.10;;;0.10;;
7049;SDS011;22263;52.260;10.548;2023-06-14T14:03:49;0.20;;;0.20;;
7049;SDS011;22263;52.260;10.548;2023-06-14T14:06:33;0.10;;;0.10;;
7049;SDS011;22263;52.260;10.548;2023-06-14T14:09:21;0.10;;;0.10;;
7049;SDS011;22263;52.260;10.548;2023-06-14T14:12:05;0.10;;;0.10;;
7049;SDS011;22263;52.260;10.548;2023-06-14T14:14:50;0.10;;;0.10;;
7049;SDS011;22263;52.260;10.548;2023-06-14T14:17:34;0.10;;;0.10;;
7049;SDS011;22263;52.260;10.548;2023-06-14T14:20:19;0.10;;;0.10;;
7049;SDS011;22263;52.260;10.548;2023-06-14T14:23:04;0.10;;;0.10;;
7049;SDS011;22263;52.260;10.548;2023-06-14T14:25:50;0.10;;;0.10;;
7049;SDS011;22263;52.260;10.548;2023-06-14T14:28:35;0.10;;;0.10;;
7049;SDS011;22263;52.260;10.548;2023-06-14T14:31:05;0.10;;;0.10;;
7049;SDS011;22263;52.260;10.548;2023-06-14T14:33:37;0.10;;;0.10;;
7049;SDS011;22263;52.260;10.548;2023-06-14T14:36:07;0.10;;;0.10;;
7049;SDS011;22263;52.260;10.548;2023-06-14T14:38:37;0.10;;;0.10;;
7049;SDS011;22263;52.260;10.548;2023-06-14T14:41:11;0.10;;;0.10;;
7049;SDS011;22263;52.260;10.548;2023-06-14T14:43:41;0.10;;;0.10;;
7049;SDS011;22263;52.260;10.548;2023-06-14T14:46:11;0.10;;;0.10;;
7049;SDS011;22263;52.260;10.548;2023-06-14T14:48:44;0.10;;;0.10;;
7049;SDS011;22263;52.260;10.548;2023-06-14T14:51:14;0.10;;;0.10;;
7049;SDS011;22263;52.260;10.548;2023-06-14T14:53:44;0.10;;;0.10;;
7049;SDS011;22263;52.260;10.548;2023-06-14T14:56:17;0.10;;;0.10;;
7049;SDS011;22263;52.260;10.548;2023-06-14T14:58:47;0.10;;;0.10;;
7049;SDS011;22263;52.260;10.548;2023-06-14T15:01:18;0.10;;;0.10;;
7049;SDS011;22263;52.260;10.548;2023-06-14T15:03:48;0.10;;;0.10;;
7049;SDS011;22263;52.260;10.548;2023-06-14T15:06:25;0.00;;;0.00;;
7049;SDS011;22263;52.260;10.548;2023-06-14T15:08:55;0.00;;;0.00;;
7049;SDS011;22263;52.260;10.548;2023-06-14T15:11:28;0.00;;;0.00;;
7049;SDS011;22263;52.260;10.548;2023-06-14T15:13:58;0.00;;;0.00;;
7049;SDS011;22263;52.260;10.548;2023-06-14T15:16:29;0.00;;;0.00;;
7049;SDS011;22263;52.260;10.548;2023-06-14T15:18:59;0.00;;;0.00;;
7049;SDS011;22263;52.260;10.548;2023-06-14T15:21:29;0.00;;;0.00;;
7049;SDS011;22263;52.260;10.548;2023-06-14T15:24:00;0.00;;;0.00;;
7049;SDS011;22263;52.260;10.548;2023-06-14T15:26:35;0.10;;;0.10;;